sensor_id;sensor_type;location;lat;lon;timestamp;temperature;humidity
837;DHT22;400;53.550;9.932;2023-11-22T00:02:11;5.90;1.00
837;DHT22;400;53.550;9.932;2023-11-22T00:04:38;5.90;1.00
837;DHT22;400;53.550;9.932;2023-11-22T00:07:06;5.80;1.00
837;DHT22;400;53.550;9.932;2023-11-22T00:09:33;5.80;1.00
837;DHT22;400;53.550;9.932;2023-11-22T00:12:01;5.70;1.00
837;DHT22;400;53.550;9.932;2023-11-22T00:14:28;5.80;1.00
837;DHT22;400;53.550;9.932;2023-11-22T00:16:55;5.80;1.00
837;DHT22;400;53.550;9.932;2023-11-22T00:19:22;5.80;1.00
837;DHT22;400;53.550;9.932;2023-11-22T00:21:49;5.70;1.00
837;DHT22;400;53.550;9.932;2023-11-22T00:24:18;5.70;1.00
837;DHT22;400;53.550;9.932;2023-11-22T00:26:45;5.70;1.00
837;DHT22;400;53.550;9.932;2023-11-22T00:29:12;5.70;1.00
837;DHT22;400;53.550;9.932;2023-11-22T00:31:42;5.70;1.00
837;DHT22;400;53.550;9.932;2023-11-22T00:34:13;5.80;1.00
837;DHT22;400;53.550;9.932;2023-11-22T00:36:40;5.70;1.00
837;DHT22;400;53.550;9.932;2023-11-22T00:39:13;5.80;1.00
837;DHT22;400;53.550;9.932;2023-11-22T00:41:41;5.80;1.00
837;DHT22;400;53.550;9.932;2023-11-22T00:44:09;5.70;1.00
837;DHT22;400;53.550;9.932;2023-11-22T00:46:39;5.80;1.00
837;DHT22;400;53.550;9.932;2023-11-22T00:49:07;5.70;1.00
837;DHT22;400;53.550;9.932;2023-11-22T00:51:35;5.70;1.00
837;DHT22;400;53.550;9.932;2023-11-22T00:54:02;5.70;1.00
837;DHT22;400;53.550;9.932;2023-11-22T00:56:28;5.70;1.00
837;DHT22;400;53.550;9.932;2023-11-22T00:58:57;5.70;1.00
837;DHT22;400;53.550;9.932;2023-11-22T01:01:25;5.80;1.00
837;DHT22;400;53.550;9.932;2023-11-22T01:03:52;5.70;1.00
837;DHT22;400;53.550;9.932;2023-11-22T01:06:19;5.70;1.00
837;DHT22;400;53.550;9.932;2023-11-22T01:08:46;5.70;1.00
837;DHT22;400;53.550;9.932;2023-11-22T01:11:14;5.70;1.00
837;DHT22;400;53.550;9.932;2023-11-22T01:13:40;5.70;1.00
837;DHT22;400;53.550;9.932;2023-11-22T01:16:10;5.60;1.00
837;DHT22;400;53.550;9.932;2023-11-22T01:18:38;5.60;1.00
837;DHT22;400;53.550;9.932;2023-11-22T01:21:05;5.50;1.00
837;DHT22;400;53.550;9.932;2023-11-22T01:23:32;5.50;1.00
837;DHT22;400;53.550;9.932;2023-11-22T01:25:59;5.40;1.00
837;DHT22;400;53.550;9.932;2023-11-22T01:28:28;5.40;1.00
837;DHT22;400;53.550;9.932;2023-11-22T01:30:59;5.40;1.00
837;DHT22;400;53.550;9.932;2023-11-22T01:33:28;5.40;1.00
837;DHT22;400;53.550;9.932;2023-11-22T01:35:55;5.30;1.00
837;DHT22;400;53.550;9.932;2023-11-22T01:38:22;5.30;1.00
837;DHT22;400;53.550;9.932;2023-11-22T01:40:51;5.30;1.00
837;DHT22;400;53.550;9.932;2023-11-22T01:43:20;5.20;1.00
837;DHT22;400;53.550;9.932;2023-11-22T01:45:49;5.20;1.00
837;DHT22;400;53.550;9.932;2023-11-22T01:48:16;5.20;1.00
837;DHT22;400;53.550;9.932;2023-11-22T01:50:45;5.20;1.00
837;DHT22;400;53.550;9.932;2023-11-22T01:53:13;5.20;1.00
837;DHT22;400;53.550;9.932;2023-11-22T01:55:42;5.20;1.00
837;DHT22;400;53.550;9.932;2023-11-22T01:58:10;5.20;1.00
837;DHT22;400;53.550;9.932;2023-11-22T02:00:45;5.20;1.00
837;DHT22;400;53.550;9.932;2023-11-22T02:03:12;5.20;1.00
837;DHT22;400;53.550;9.932;2023-11-22T02:05:40;5.20;1.00
837;DHT22;400;53.550;9.932;2023-11-22T02:08:10;5.20;1.00
837;DHT22;400;53.550;9.932;2023-11-22T02:10:37;5.10;1.00
837;DHT22;400;53.550;9.932;2023-11-22T02:13:05;5.10;1.00
837;DHT22;400;53.550;9.932;2023-11-22T02:15:33;5.10;1.00
837;DHT22;400;53.550;9.932;2023-11-22T02:18:01;5.10;1.00
837;DHT22;400;53.550;9.932;2023-11-22T02:20:28;5.10;1.00
837;DHT22;400;53.550;9.932;2023-11-22T02:22:55;5.10;1.00
837;DHT22;400;53.550;9.932;2023-11-22T02:25:24;5.10;1.00
837;DHT22;400;53.550;9.932;2023-11-22T02:27:50;5.10;1.00
837;DHT22;400;53.550;9.932;2023-11-22T02:30:17;5.10;1.00
837;DHT22;400;53.550;9.932;2023-11-22T02:32:45;5.10;1.00
837;DHT22;400;53.550;9.932;2023-11-22T02:35:12;5.10;1.00
837;DHT22;400;53.550;9.932;2023-11-22T02:37:41;5.10;1.00
837;DHT22;400;53.550;9.932;2023-11-22T02:40:17;5.10;1.00
837;DHT22;400;53.550;9.932;2023-11-22T02:42:49;5.10;1.00
837;DHT22;400;53.550;9.932;2023-11-22T02:45:16;5.10;1.00
837;DHT22;400;53.550;9.932;2023-11-22T02:47:44;5.10;1.00
837;DHT22;400;53.550;9.932;2023-11-22T02:50:12;5.10;1.00
837;DHT22;400;53.550;9.932;2023-11-22T02:52:39;5.10;1.00
837;DHT22;400;53.550;9.932;2023-11-22T02:55:07;5.10;1.00
837;DHT22;400;53.550;9.932;2023-11-22T02:57:35;5.00;1.00
837;DHT22;400;53.550;9.932;2023-11-22T03:00:04;5.00;1.00
837;DHT22;400;53.550;9.932;2023-11-22T03:02:32;5.00;1.00
837;DHT22;400;53.550;9.932;2023-11-22T03:04:59;5.00;1.00
837;DHT22;400;53.550;9.932;2023-11-22T03:07:26;5.00;1.00
837;DHT22;400;53.550;9.932;2023-11-22T03:09:55;5.00;1.00
837;DHT22;400;53.550;9.932;2023-11-22T03:12:24;5.00;1.00
837;DHT22;400;53.550;9.932;2023-11-22T03:14:51;5.00;1.00
837;DHT22;400;53.550;9.932;2023-11-22T03:17:21;5.00;1.00
837;DHT22;400;53.550;9.932;2023-11-22T03:19:47;5.00;1.00
837;DHT22;400;53.550;9.932;2023-11-22T03:22:14;5.00;1.00
837;DHT22;400;53.550;9.932;2023-11-22T03:24:44;4.90;1.00
837;DHT22;400;53.550;9.932;2023-11-22T03:27:12;5.00;1.00
837;DHT22;400;53.550;9.932;2023-11-22T03:29:38;4.90;1.00
837;DHT22;400;53.550;9.932;2023-11-22T03:32:06;4.90;1.00
837;DHT22;400;53.550;9.932;2023-11-22T03:34:35;4.90;1.00
837;DHT22;400;53.550;9.932;2023-11-22T03:37:02;4.90;1.00
837;DHT22;400;53.550;9.932;2023-11-22T03:39:29;4.90;1.00
837;DHT22;400;53.550;9.932;2023-11-22T03:41:56;4.80;1.00
837;DHT22;400;53.550;9.932;2023-11-22T03:44:29;4.80;1.00
837;DHT22;400;53.550;9.932;2023-11-22T03:47:00;4.80;1.00
837;DHT22;400;53.550;9.932;2023-11-22T03:49:40;4.80;1.00
837;DHT22;400;53.550;9.932;2023-11-22T03:52:10;4.80;1.00
837;DHT22;400;53.550;9.932;2023-11-22T03:54:37;4.80;1.00
837;DHT22;400;53.550;9.932;2023-11-22T03:57:05;4.80;1.00
837;DHT22;400;53.550;9.932;2023-11-22T03:59:34;4.70;1.00
837;DHT22;400;53.550;9.932;2023-11-22T04:02:01;4.70;1.00
837;DHT22;400;53.550;9.932;2023-11-22T04:04:28;4.70;1.00
837;DHT22;400;53.550;9.932;2023-11-22T04:06:57;4.70;1.00
837;DHT22;400;53.550;9.932;2023-11-22T04:09:24;4.70;1.00
837;DHT22;400;53.550;9.932;2023-11-22T04:11:52;4.70;1.00
837;DHT22;400;53.550;9.932;2023-11-22T04:14:19;4.70;1.00
837;DHT22;400;53.550;9.932;2023-11-22T04:16:47;4.60;1.00
837;DHT22;400;53.550;9.932;2023-11-22T04:19:14;4.60;1.00
837;DHT22;400;53.550;9.932;2023-11-22T04:21:41;4.60;1.00
837;DHT22;400;53.550;9.932;2023-11-22T04:24:09;4.60;1.00
837;DHT22;400;53.550;9.932;2023-11-22T04:26:38;4.60;1.00
837;DHT22;400;53.550;9.932;2023-11-22T04:29:04;4.60;1.00
837;DHT22;400;53.550;9.932;2023-11-22T04:31:31;4.60;1.00
837;DHT22;400;53.550;9.932;2023-11-22T04:33:58;4.60;1.00
837;DHT22;400;53.550;9.932;2023-11-22T04:36:27;4.60;1.00
837;DHT22;400;53.550;9.932;2023-11-22T04:38:58;4.60;1.00
837;DHT22;400;53.550;9.932;2023-11-22T04:41:29;4.70;1.00
837;DHT22;400;53.550;9.932;2023-11-22T04:43:56;4.70;1.00
837;DHT22;400;53.550;9.932;2023-11-22T04:46:23;4.70;1.00
837;DHT22;400;53.550;9.932;2023-11-22T04:48:50;4.70;1.00
837;DHT22;400;53.550;9.932;2023-11-22T04:51:17;4.70;1.00
837;DHT22;400;53.550;9.932;2023-11-22T04:53:45;4.80;1.00
837;DHT22;400;53.550;9.932;2023-11-22T04:56:12;4.80;1.00
837;DHT22;400;53.550;9.932;2023-11-22T04:58:40;4.80;1.00
837;DHT22;400;53.550;9.932;2023-11-22T05:01:07;4.80;1.00
837;DHT22;400;53.550;9.932;2023-11-22T05:03:36;4.80;1.00
837;DHT22;400;53.550;9.932;2023-11-22T05:06:03;4.80;1.00
837;DHT22;400;53.550;9.932;2023-11-22T05:08:31;4.80;1.00
837;DHT22;400;53.550;9.932;2023-11-22T05:10:58;4.80;1.00
837;DHT22;400;53.550;9.932;2023-11-22T05:13:26;4.80;1.00
837;DHT22;400;53.550;9.932;2023-11-22T05:15:54;4.80;1.00
837;DHT22;400;53.550;9.932;2023-11-22T05:18:23;4.90;1.00
837;DHT22;400;53.550;9.932;2023-11-22T05:20:51;4.90;1.00
837;DHT22;400;53.550;9.932;2023-11-22T05:23:18;4.90;1.00
837;DHT22;400;53.550;9.932;2023-11-22T05:25:45;4.90;1.00
837;DHT22;400;53.550;9.932;2023-11-22T05:28:12;4.80;1.00
837;DHT22;400;53.550;9.932;2023-11-22T05:30:39;4.80;1.00
837;DHT22;400;53.550;9.932;2023-11-22T05:33:08;4.80;1.00
837;DHT22;400;53.550;9.932;2023-11-22T05:35:35;4.80;1.00
837;DHT22;400;53.550;9.932;2023-11-22T05:38:02;4.80;1.00
837;DHT22;400;53.550;9.932;2023-11-22T05:40:29;4.90;1.00
837;DHT22;400;53.550;9.932;2023-11-22T05:42:56;4.90;1.00
837;DHT22;400;53.550;9.932;2023-11-22T05:45:25;4.90;1.00
837;DHT22;400;53.550;9.932;2023-11-22T05:47:52;4.80;1.00
837;DHT22;400;53.550;9.932;2023-11-22T05:50:21;4.90;1.00
837;DHT22;400;53.550;9.932;2023-11-22T05:52:50;4.90;1.00
837;DHT22;400;53.550;9.932;2023-11-22T05:55:20;4.80;1.00
837;DHT22;400;53.550;9.932;2023-11-22T05:57:48;4.80;1.00
837;DHT22;400;53.550;9.932;2023-11-22T06:00:16;4.80;1.00
837;DHT22;400;53.550;9.932;2023-11-22T06:02:43;4.80;1.00
837;DHT22;400;53.550;9.932;2023-11-22T06:05:10;4.80;1.00
837;DHT22;400;53.550;9.932;2023-11-22T06:07:38;4.80;1.00
837;DHT22;400;53.550;9.932;2023-11-22T06:10:06;4.90;1.00
837;DHT22;400;53.550;9.932;2023-11-22T06:12:33;4.90;1.00
837;DHT22;400;53.550;9.932;2023-11-22T06:15:01;4.90;1.00
837;DHT22;400;53.550;9.932;2023-11-22T06:17:31;4.90;1.00
837;DHT22;400;53.550;9.932;2023-11-22T06:20:01;4.80;1.00
837;DHT22;400;53.550;9.932;2023-11-22T06:22:34;4.80;1.00
837;DHT22;400;53.550;9.932;2023-11-22T06:25:05;4.80;1.00
837;DHT22;400;53.550;9.932;2023-11-22T06:27:37;4.80;1.00
837;DHT22;400;53.550;9.932;2023-11-22T06:30:08;4.80;1.00
837;DHT22;400;53.550;9.932;2023-11-22T06:32:36;4.80;1.00
837;DHT22;400;53.550;9.932;2023-11-22T06:35:04;4.90;1.00
837;DHT22;400;53.550;9.932;2023-11-22T06:37:34;4.90;1.00
837;DHT22;400;53.550;9.932;2023-11-22T06:40:03;4.90;1.00
837;DHT22;400;53.550;9.932;2023-11-22T06:42:30;4.90;1.00
837;DHT22;400;53.550;9.932;2023-11-22T06:44:59;4.90;1.00
837;DHT22;400;53.550;9.932;2023-11-22T06:47:26;4.90;1.00
837;DHT22;400;53.550;9.932;2023-11-22T06:49:55;4.90;1.00
837;DHT22;400;53.550;9.932;2023-11-22T06:52:25;5.00;1.00
837;DHT22;400;53.550;9.932;2023-11-22T06:54:55;5.00;1.00
837;DHT22;400;53.550;9.932;2023-11-22T06:57:27;5.00;1.00
837;DHT22;400;53.550;9.932;2023-11-22T06:59:55;5.00;1.00
837;DHT22;400;53.550;9.932;2023-11-22T07:02:22;5.00;1.00
837;DHT22;400;53.550;9.932;2023-11-22T07:04:50;5.10;1.00
837;DHT22;400;53.550;9.932;2023-11-22T07:07:17;5.10;1.00
837;DHT22;400;53.550;9.932;2023-11-22T07:09:45;5.10;1.00
837;DHT22;400;53.550;9.932;2023-11-22T07:12:16;5.10;1.00
837;DHT22;400;53.550;9.932;2023-11-22T07:14:50;5.10;1.00
837;DHT22;400;53.550;9.932;2023-11-22T07:17:19;5.10;1.00
837;DHT22;400;53.550;9.932;2023-11-22T07:19:48;5.10;1.00
837;DHT22;400;53.550;9.932;2023-11-22T07:22:17;5.10;1.00
837;DHT22;400;53.550;9.932;2023-11-22T07:24:45;5.10;1.00
837;DHT22;400;53.550;9.932;2023-11-22T07:27:13;5.10;1.00
837;DHT22;400;53.550;9.932;2023-11-22T07:29:40;5.10;1.00
837;DHT22;400;53.550;9.932;2023-11-22T07:32:09;5.20;1.00
837;DHT22;400;53.550;9.932;2023-11-22T07:34:38;5.20;1.00
837;DHT22;400;53.550;9.932;2023-11-22T07:37:07;5.20;1.00
837;DHT22;400;53.550;9.932;2023-11-22T07:39:34;5.20;1.00
837;DHT22;400;53.550;9.932;2023-11-22T07:42:02;5.20;1.00
837;DHT22;400;53.550;9.932;2023-11-22T07:44:31;5.20;1.00
837;DHT22;400;53.550;9.932;2023-11-22T07:46:59;5.20;1.00
837;DHT22;400;53.550;9.932;2023-11-22T07:49:27;5.30;1.00
837;DHT22;400;53.550;9.932;2023-11-22T07:51:56;5.30;1.00
837;DHT22;400;53.550;9.932;2023-11-22T07:54:24;5.20;1.00
837;DHT22;400;53.550;9.932;2023-11-22T07:56:53;5.30;1.00
837;DHT22;400;53.550;9.932;2023-11-22T07:59:20;5.30;1.00
837;DHT22;400;53.550;9.932;2023-11-22T08:01:47;5.30;1.00
837;DHT22;400;53.550;9.932;2023-11-22T08:04:14;5.30;1.00
837;DHT22;400;53.550;9.932;2023-11-22T08:06:45;5.30;1.00
837;DHT22;400;53.550;9.932;2023-11-22T08:09:16;5.40;1.00
837;DHT22;400;53.550;9.932;2023-11-22T08:11:45;5.40;1.00
837;DHT22;400;53.550;9.932;2023-11-22T08:14:13;5.40;1.00
837;DHT22;400;53.550;9.932;2023-11-22T08:16:40;5.40;1.00
837;DHT22;400;53.550;9.932;2023-11-22T08:19:09;5.40;1.00
837;DHT22;400;53.550;9.932;2023-11-22T08:21:36;5.50;1.00
837;DHT22;400;53.550;9.932;2023-11-22T08:24:06;5.50;1.00
837;DHT22;400;53.550;9.932;2023-11-22T08:26:33;5.50;1.00
837;DHT22;400;53.550;9.932;2023-11-22T08:29:01;5.50;1.00
837;DHT22;400;53.550;9.932;2023-11-22T08:31:29;5.50;1.00
837;DHT22;400;53.550;9.932;2023-11-22T08:33:57;5.60;1.00
837;DHT22;400;53.550;9.932;2023-11-22T08:36:23;5.60;1.00
837;DHT22;400;53.550;9.932;2023-11-22T08:38:50;5.60;1.00
837;DHT22;400;53.550;9.932;2023-11-22T08:41:20;5.60;1.00
837;DHT22;400;53.550;9.932;2023-11-22T08:43:47;5.60;1.00
837;DHT22;400;53.550;9.932;2023-11-22T08:46:15;5.70;1.00
837;DHT22;400;53.550;9.932;2023-11-22T08:48:43;5.70;1.00
837;DHT22;400;53.550;9.932;2023-11-22T08:51:14;5.70;1.00
837;DHT22;400;53.550;9.932;2023-11-22T08:53:44;5.70;1.00
837;DHT22;400;53.550;9.932;2023-11-22T08:56:15;5.70;1.00
837;DHT22;400;53.550;9.932;2023-11-22T08:58:43;5.70;1.00
837;DHT22;400;53.550;9.932;2023-11-22T09:01:10;5.80;1.00
837;DHT22;400;53.550;9.932;2023-11-22T09:03:40;5.80;1.00
837;DHT22;400;53.550;9.932;2023-11-22T09:06:07;5.80;1.00
837;DHT22;400;53.550;9.932;2023-11-22T09:08:35;5.80;1.00
837;DHT22;400;53.550;9.932;2023-11-22T09:11:03;5.80;1.00
837;DHT22;400;53.550;9.932;2023-11-22T09:13:32;5.90;1.00
837;DHT22;400;53.550;9.932;2023-11-22T09:16:03;5.90;1.00
837;DHT22;400;53.550;9.932;2023-11-22T09:18:34;5.90;1.00
837;DHT22;400;53.550;9.932;2023-11-22T09:21:04;6.00;1.00
837;DHT22;400;53.550;9.932;2023-11-22T09:23:34;6.00;1.00
837;DHT22;400;53.550;9.932;2023-11-22T09:26:04;6.00;1.00
837;DHT22;400;53.550;9.932;2023-11-22T09:28:32;6.00;1.00
837;DHT22;400;53.550;9.932;2023-11-22T09:30:59;6.10;1.00
837;DHT22;400;53.550;9.932;2023-11-22T09:33:32;6.10;1.00
837;DHT22;400;53.550;9.932;2023-11-22T09:35:59;6.10;1.00
837;DHT22;400;53.550;9.932;2023-11-22T09:38:29;6.10;1.00
837;DHT22;400;53.550;9.932;2023-11-22T09:40:59;6.10;1.00
837;DHT22;400;53.550;9.932;2023-11-22T09:43:34;6.10;1.00
837;DHT22;400;53.550;9.932;2023-11-22T09:46:05;6.20;1.00
837;DHT22;400;53.550;9.932;2023-11-22T09:48:39;6.20;1.00
837;DHT22;400;53.550;9.932;2023-11-22T09:51:11;6.20;1.00
837;DHT22;400;53.550;9.932;2023-11-22T09:53:50;6.20;1.00
837;DHT22;400;53.550;9.932;2023-11-22T09:56:20;6.20;1.00
837;DHT22;400;53.550;9.932;2023-11-22T09:58:52;6.30;1.00
837;DHT22;400;53.550;9.932;2023-11-22T10:01:21;6.30;1.00
837;DHT22;400;53.550;9.932;2023-11-22T10:03:51;6.30;1.00
837;DHT22;400;53.550;9.932;2023-11-22T10:06:18;6.30;1.00
837;DHT22;400;53.550;9.932;2023-11-22T10:08:46;6.30;1.00
837;DHT22;400;53.550;9.932;2023-11-22T10:11:15;6.30;1.00
837;DHT22;400;53.550;9.932;2023-11-22T10:13:43;6.30;1.00
837;DHT22;400;53.550;9.932;2023-11-22T10:16:12;6.30;1.00
837;DHT22;400;53.550;9.932;2023-11-22T10:18:42;6.30;1.00
837;DHT22;400;53.550;9.932;2023-11-22T10:21:22;6.30;1.00
837;DHT22;400;53.550;9.932;2023-11-22T10:23:50;6.30;1.00
837;DHT22;400;53.550;9.932;2023-11-22T10:26:19;6.30;1.00
837;DHT22;400;53.550;9.932;2023-11-22T10:28:47;6.30;1.00
837;DHT22;400;53.550;9.932;2023-11-22T10:31:17;6.40;1.00
837;DHT22;400;53.550;9.932;2023-11-22T10:33:44;6.40;1.00
837;DHT22;400;53.550;9.932;2023-11-22T10:36:12;6.50;1.00
837;DHT22;400;53.550;9.932;2023-11-22T10:38:46;6.50;1.00
837;DHT22;400;53.550;9.932;2023-11-22T10:41:21;6.50;1.00
837;DHT22;400;53.550;9.932;2023-11-22T10:44:07;6.60;1.00
837;DHT22;400;53.550;9.932;2023-11-22T10:46:40;6.60;1.00
837;DHT22;400;53.550;9.932;2023-11-22T10:49:10;6.60;1.00
837;DHT22;400;53.550;9.932;2023-11-22T10:51:40;6.60;1.00
837;DHT22;400;53.550;9.932;2023-11-22T10:54:10;6.60;1.00
837;DHT22;400;53.550;9.932;2023-11-22T10:56:40;6.50;1.00
837;DHT22;400;53.550;9.932;2023-11-22T10:59:12;6.60;1.00
837;DHT22;400;53.550;9.932;2023-11-22T11:01:44;6.60;1.00
837;DHT22;400;53.550;9.932;2023-11-22T11:04:24;6.60;1.00
837;DHT22;400;53.550;9.932;2023-11-22T11:06:55;6.60;1.00
837;DHT22;400;53.550;9.932;2023-11-22T11:09:24;6.60;1.00
837;DHT22;400;53.550;9.932;2023-11-22T11:11:57;6.60;1.00
837;DHT22;400;53.550;9.932;2023-11-22T11:14:26;6.60;1.00
837;DHT22;400;53.550;9.932;2023-11-22T11:16:54;6.60;1.00
837;DHT22;400;53.550;9.932;2023-11-22T11:19:24;6.60;1.00
837;DHT22;400;53.550;9.932;2023-11-22T11:21:54;6.60;1.00
837;DHT22;400;53.550;9.932;2023-11-22T11:24:26;6.60;1.00
837;DHT22;400;53.550;9.932;2023-11-22T11:26:53;6.60;1.00
837;DHT22;400;53.550;9.932;2023-11-22T11:29:30;6.60;1.00
837;DHT22;400;53.550;9.932;2023-11-22T11:31:59;6.70;1.00
837;DHT22;400;53.550;9.932;2023-11-22T11:34:29;6.70;1.00
837;DHT22;400;53.550;9.932;2023-11-22T11:36:59;6.70;1.00
837;DHT22;400;53.550;9.932;2023-11-22T11:39:28;6.70;1.00
837;DHT22;400;53.550;9.932;2023-11-22T11:42:12;6.70;1.00
837;DHT22;400;53.550;9.932;2023-11-22T11:45:02;6.70;1.00
837;DHT22;400;53.550;9.932;2023-11-22T11:47:37;6.80;1.00
837;DHT22;400;53.550;9.932;2023-11-22T11:50:07;6.80;1.00
837;DHT22;400;53.550;9.932;2023-11-22T11:52:38;6.80;1.00
837;DHT22;400;53.550;9.932;2023-11-22T11:55:07;6.80;1.00
837;DHT22;400;53.550;9.932;2023-11-22T11:57:34;6.80;1.00
837;DHT22;400;53.550;9.932;2023-11-22T12:00:07;6.80;1.00
837;DHT22;400;53.550;9.932;2023-11-22T12:02:42;6.90;1.00
837;DHT22;400;53.550;9.932;2023-11-22T12:05:13;6.90;1.00
837;DHT22;400;53.550;9.932;2023-11-22T12:07:40;7.00;1.00
837;DHT22;400;53.550;9.932;2023-11-22T12:10:09;7.00;1.00
837;DHT22;400;53.550;9.932;2023-11-22T12:12:36;7.10;1.00
837;DHT22;400;53.550;9.932;2023-11-22T12:15:05;7.10;1.00
837;DHT22;400;53.550;9.932;2023-11-22T12:17:33;7.10;1.00
837;DHT22;400;53.550;9.932;2023-11-22T12:20:14;7.10;1.00
837;DHT22;400;53.550;9.932;2023-11-22T12:22:43;7.20;1.00
837;DHT22;400;53.550;9.932;2023-11-22T12:25:13;7.20;1.00
837;DHT22;400;53.550;9.932;2023-11-22T12:27:42;7.20;1.00
837;DHT22;400;53.550;9.932;2023-11-22T12:30:16;7.10;1.00
837;DHT22;400;53.550;9.932;2023-11-22T12:32:54;7.10;1.00
837;DHT22;400;53.550;9.932;2023-11-22T12:35:22;7.10;1.00
837;DHT22;400;53.550;9.932;2023-11-22T12:37:50;7.00;1.00
837;DHT22;400;53.550;9.932;2023-11-22T12:40:20;6.90;1.00
837;DHT22;400;53.550;9.932;2023-11-22T12:42:49;6.90;1.00
837;DHT22;400;53.550;9.932;2023-11-22T12:45:21;6.90;1.00
837;DHT22;400;53.550;9.932;2023-11-22T12:47:50;6.90;1.00
837;DHT22;400;53.550;9.932;2023-11-22T12:50:32;6.90;1.00
837;DHT22;400;53.550;9.932;2023-11-22T12:53:12;6.90;1.00
837;DHT22;400;53.550;9.932;2023-11-22T12:55:44;6.80;1.00
837;DHT22;400;53.550;9.932;2023-11-22T12:58:12;6.80;1.00
837;DHT22;400;53.550;9.932;2023-11-22T13:00:40;6.90;1.00
837;DHT22;400;53.550;9.932;2023-11-22T13:03:07;6.90;1.00
837;DHT22;400;53.550;9.932;2023-11-22T13:05:36;6.90;1.00
837;DHT22;400;53.550;9.932;2023-11-22T13:08:04;6.90;1.00
837;DHT22;400;53.550;9.932;2023-11-22T13:10:32;6.80;1.00
837;DHT22;400;53.550;9.932;2023-11-22T13:13:01;6.80;1.00
837;DHT22;400;53.550;9.932;2023-11-22T13:15:28;6.80;1.00
837;DHT22;400;53.550;9.932;2023-11-22T13:17:57;6.80;1.00
837;DHT22;400;53.550;9.932;2023-11-22T13:20:29;6.80;1.00
837;DHT22;400;53.550;9.932;2023-11-22T13:23:00;6.80;1.00
837;DHT22;400;53.550;9.932;2023-11-22T13:25:32;6.80;1.00
837;DHT22;400;53.550;9.932;2023-11-22T13:28:00;6.90;1.00
837;DHT22;400;53.550;9.932;2023-11-22T13:30:27;6.90;1.00
837;DHT22;400;53.550;9.932;2023-11-22T13:32:55;6.90;1.00
837;DHT22;400;53.550;9.932;2023-11-22T13:35:22;6.90;1.00
837;DHT22;400;53.550;9.932;2023-11-22T13:37:49;6.80;1.00
837;DHT22;400;53.550;9.932;2023-11-22T13:40:19;6.70;1.00
837;DHT22;400;53.550;9.932;2023-11-22T13:42:49;6.60;1.00
837;DHT22;400;53.550;9.932;2023-11-22T13:45:22;6.70;1.00
837;DHT22;400;53.550;9.932;2023-11-22T13:47:52;6.70;1.00
837;DHT22;400;53.550;9.932;2023-11-22T13:50:27;6.70;1.00
837;DHT22;400;53.550;9.932;2023-11-22T13:52:58;6.70;1.00
837;DHT22;400;53.550;9.932;2023-11-22T13:55:31;6.70;1.00
837;DHT22;400;53.550;9.932;2023-11-22T13:57:59;6.70;1.00
837;DHT22;400;53.550;9.932;2023-11-22T14:00:30;6.70;1.00
837;DHT22;400;53.550;9.932;2023-11-22T14:03:01;6.80;1.00
837;DHT22;400;53.550;9.932;2023-11-22T14:05:33;6.70;1.00
837;DHT22;400;53.550;9.932;2023-11-22T14:08:06;6.70;1.00
837;DHT22;400;53.550;9.932;2023-11-22T14:10:40;6.70;1.00
837;DHT22;400;53.550;9.932;2023-11-22T14:13:09;6.70;1.00
837;DHT22;400;53.550;9.932;2023-11-22T14:15:39;6.60;1.00
837;DHT22;400;53.550;9.932;2023-11-22T14:18:07;6.70;1.00
837;DHT22;400;53.550;9.932;2023-11-22T14:20:40;6.60;1.00
837;DHT22;400;53.550;9.932;2023-11-22T14:23:12;6.60;1.00
837;DHT22;400;53.550;9.932;2023-11-22T14:25:43;6.60;1.00
837;DHT22;400;53.550;9.932;2023-11-22T14:28:13;6.60;1.00
837;DHT22;400;53.550;9.932;2023-11-22T14:30:42;6.60;1.00
837;DHT22;400;53.550;9.932;2023-11-22T14:33:10;6.50;1.00
837;DHT22;400;53.550;9.932;2023-11-22T14:35:40;6.50;1.00
837;DHT22;400;53.550;9.932;2023-11-22T14:38:10;6.60;1.00
837;DHT22;400;53.550;9.932;2023-11-22T14:40:40;6.60;1.00
837;DHT22;400;53.550;9.932;2023-11-22T14:43:08;6.60;1.00
837;DHT22;400;53.550;9.932;2023-11-22T14:45:40;6.60;1.00
837;DHT22;400;53.550;9.932;2023-11-22T14:48:14;6.60;1.00
837;DHT22;400;53.550;9.932;2023-11-22T14:50:46;6.50;1.00
837;DHT22;400;53.550;9.932;2023-11-22T14:53:18;6.50;1.00
837;DHT22;400;53.550;9.932;2023-11-22T14:55:49;6.60;1.00
837;DHT22;400;53.550;9.932;2023-11-22T14:58:19;6.60;1.00
837;DHT22;400;53.550;9.932;2023-11-22T15:00:48;6.60;1.00
837;DHT22;400;53.550;9.932;2023-11-22T15:03:19;6.50;1.00
837;DHT22;400;53.550;9.932;2023-11-22T15:05:50;6.40;1.00
837;DHT22;400;53.550;9.932;2023-11-22T15:08:22;6.50;1.00
837;DHT22;400;53.550;9.932;2023-11-22T15:10:54;6.50;1.00
837;DHT22;400;53.550;9.932;2023-11-22T15:13:23;6.50;1.00
837;DHT22;400;53.550;9.932;2023-11-22T15:15:53;6.50;1.00
837;DHT22;400;53.550;9.932;2023-11-22T15:18:23;6.50;1.00
837;DHT22;400;53.550;9.932;2023-11-22T15:20:52;6.50;1.00
837;DHT22;400;53.550;9.932;2023-11-22T15:23:20;6.50;1.00
837;DHT22;400;53.550;9.932;2023-11-22T15:25:46;6.50;1.00
837;DHT22;400;53.550;9.932;2023-11-22T15:28:13;6.30;1.00
837;DHT22;400;53.550;9.932;2023-11-22T15:30:49;6.30;1.00
837;DHT22;400;53.550;9.932;2023-11-22T15:33:23;6.30;1.00
837;DHT22;400;53.550;9.932;2023-11-22T15:35:50;6.30;1.00
837;DHT22;400;53.550;9.932;2023-11-22T15:38:18;6.30;1.00
837;DHT22;400;53.550;9.932;2023-11-22T15:40:48;6.30;1.00
837;DHT22;400;53.550;9.932;2023-11-22T15:43:18;6.30;1.00
837;DHT22;400;53.550;9.932;2023-11-22T15:45:46;6.30;1.00
837;DHT22;400;53.550;9.932;2023-11-22T15:48:13;6.30;1.00
837;DHT22;400;53.550;9.932;2023-11-22T15:50:41;6.30;1.00
837;DHT22;400;53.550;9.932;2023-11-22T15:53:08;6.20;1.00
837;DHT22;400;53.550;9.932;2023-11-22T15:55:38;6.30;1.00
837;DHT22;400;53.550;9.932;2023-11-22T15:58:06;6.40;1.00
837;DHT22;400;53.550;9.932;2023-11-22T16:00:35;6.30;1.00
837;DHT22;400;53.550;9.932;2023-11-22T16:03:03;6.30;1.00
837;DHT22;400;53.550;9.932;2023-11-22T16:05:33;6.30;1.00
837;DHT22;400;53.550;9.932;2023-11-22T16:08:02;6.20;1.00
837;DHT22;400;53.550;9.932;2023-11-22T16:10:31;6.30;1.00
837;DHT22;400;53.550;9.932;2023-11-22T16:12:58;6.30;1.00
837;DHT22;400;53.550;9.932;2023-11-22T16:15:25;6.30;1.00
837;DHT22;400;53.550;9.932;2023-11-22T16:17:53;6.30;1.00
837;DHT22;400;53.550;9.932;2023-11-22T16:20:22;6.30;1.00
837;DHT22;400;53.550;9.932;2023-11-22T16:22:51;6.20;1.00
837;DHT22;400;53.550;9.932;2023-11-22T16:25:24;6.20;1.00
837;DHT22;400;53.550;9.932;2023-11-22T16:27:54;6.20;1.00
837;DHT22;400;53.550;9.932;2023-11-22T16:30:22;6.20;1.00
837;DHT22;400;53.550;9.932;2023-11-22T16:32:49;6.20;1.00
837;DHT22;400;53.550;9.932;2023-11-22T16:35:16;6.10;1.00
837;DHT22;400;53.550;9.932;2023-11-22T16:37:46;6.10;1.00
837;DHT22;400;53.550;9.932;2023-11-22T16:40:18;6.00;1.00
837;DHT22;400;53.550;9.932;2023-11-22T16:42:51;5.90;1.00
837;DHT22;400;53.550;9.932;2023-11-22T16:45:20;6.00;1.00
837;DHT22;400;53.550;9.932;2023-11-22T16:47:47;6.00;1.00
837;DHT22;400;53.550;9.932;2023-11-22T16:50:14;6.10;1.00
837;DHT22;400;53.550;9.932;2023-11-22T16:52:41;6.10;1.00
837;DHT22;400;53.550;9.932;2023-11-22T16:55:12;6.10;1.00
837;DHT22;400;53.550;9.932;2023-11-22T16:57:39;6.10;1.00
837;DHT22;400;53.550;9.932;2023-11-22T17:00:08;6.20;1.00
837;DHT22;400;53.550;9.932;2023-11-22T17:02:51;6.10;1.00
837;DHT22;400;53.550;9.932;2023-11-22T17:05:26;6.10;1.00
837;DHT22;400;53.550;9.932;2023-11-22T17:07:55;6.00;1.00
837;DHT22;400;53.550;9.932;2023-11-22T17:10:23;6.00;1.00
837;DHT22;400;53.550;9.932;2023-11-22T17:12:53;5.70;1.00
837;DHT22;400;53.550;9.932;2023-11-22T17:15:28;5.90;1.00
837;DHT22;400;53.550;9.932;2023-11-22T17:17:58;5.80;1.00
837;DHT22;400;53.550;9.932;2023-11-22T17:20:27;5.80;1.00
837;DHT22;400;53.550;9.932;2023-11-22T17:22:56;5.80;1.00